Time;durP1;ratioP1;P1;durP2;ratioP2;P2;SDS_P1;SDS_P2;PMS_P1;PMS_P2;Temp;Humidity;BMP_temperature;BMP_pressure;BME280_temperature;BME280_humidity;BME280_pressure;Samples;Min_cycle;Max_cycle;Signal;HPM_P1;HPM_P2
2024/02/24 00:03:23;;;;;;;38.55;29.35;;;;;;;;;;10112086;28;20065;-77
2024/02/24 00:08:18;;;;;;;36.38;25.45;;;;;;;;;;10111398;28;20122;-76
2024/02/24 00:13:12;;;;;;;34.80;25.45;;;;;;;;;;10110573;28;20511;-76
2024/02/24 00:18:06;;;;;;;34.20;24.92;;;;;;;;;;10109754;28;20406;-79
2024/02/24 00:23:00;;;;;;;32.50;24.73;;;;;;;;;;10111014;28;20055;-77
2024/02/24 00:27:55;;;;;;;38.08;26.25;;;;;;;;;;10111063;28;20136;-77
2024/02/24 00:32:49;;;;;;;38.67;25.65;;;;;;;;;;10110542;28;20041;-78
2024/02/24 00:37:43;;;;;;;41.40;28.27;;;;;;;;;;10111180;28;20052;-78
2024/02/24 00:42:38;;;;;;;36.25;25.23;;;;;;;;;;10110062;28;20057;-77
2024/02/24 00:47:32;;;;;;;32.75;23.83;;;;;;;;;;10109650;28;20124;-77
2024/02/24 00:52:26;;;;;;;31.08;23.05;;;;;;;;;;10109846;28;20045;-77
2024/02/24 00:57:23;;;;;;;33.97;22.70;;;;;;;;;;10110354;28;20061;-78
2024/02/24 01:02:18;;;;;;;35.22;22.90;;;;;;;;;;10108739;28;20099;-77
2024/02/24 01:07:14;;;;;;;35.08;22.38;;;;;;;;;;10087955;28;20523;-76
2024/02/24 01:12:09;;;;;;;29.92;19.30;;;;;;;;;;10106098;28;20049;-76
2024/02/24 01:17:04;;;;;;;34.78;22.88;;;;;;;;;;10105332;28;20049;-77
2024/02/24 01:21:59;;;;;;;35.35;24.75;;;;;;;;;;10105270;28;20083;-77
2024/02/24 01:26:53;;;;;;;37.85;23.02;;;;;;;;;;10105232;28;20053;-78
2024/02/24 01:31:47;;;;;;;31.45;20.60;;;;;;;;;;10105700;28;20072;-77
2024/02/24 01:36:41;;;;;;;32.80;18.42;;;;;;;;;;10105831;28;20095;-78
2024/02/24 01:41:35;;;;;;;23.83;15.63;;;;;;;;;;10104816;28;20120;-78
2024/02/24 01:46:31;;;;;;;15.18;12.13;;;;;;;;;;10106078;28;20139;-76
2024/02/24 01:51:24;;;;;;;17.58;11.13;;;;;;;;;;10106296;28;20045;-76
2024/02/24 01:56:18;;;;;;;20.38;13.15;;;;;;;;;;10104953;28;20057;-76
2024/02/24 02:01:12;;;;;;;12.30;8.10;;;;;;;;;;10105384;28;20124;-77
2024/02/24 02:06:06;;;;;;;9.80;5.70;;;;;;;;;;10104982;28;20501;-75
2024/02/24 02:11:01;;;;;;;23.95;17.60;;;;;;;;;;10105367;28;20061;-78
2024/02/24 02:15:57;;;;;;;12.77;9.38;;;;;;;;;;10104990;28;20064;-77
2024/02/24 02:20:52;;;;;;;9.40;7.70;;;;;;;;;;10106265;28;20041;-76
2024/02/24 02:25:46;;;;;;;3.25;2.50;;;;;;;;;;10104852;28;20045;-78
2024/02/24 02:30:41;;;;;;;3.92;2.78;;;;;;;;;;10104367;28;20072;-76
2024/02/24 02:35:35;;;;;;;2.83;2.53;;;;;;;;;;10104497;28;20057;-78
2024/02/24 02:40:30;;;;;;;10.32;7.80;;;;;;;;;;10104463;28;20120;-77
2024/02/24 02:45:24;;;;;;;26.63;18.15;;;;;;;;;;10103720;28;20053;-76
2024/02/24 02:50:18;;;;;;;11.13;7.57;;;;;;;;;;10104132;28;20045;-77
2024/02/24 02:55:11;;;;;;;8.23;4.72;;;;;;;;;;10103834;28;20037;-77
2024/02/24 03:00:07;;;;;;;5.38;3.65;;;;;;;;;;10103750;28;20044;-77
2024/02/24 03:05:01;;;;;;;6.50;4.40;;;;;;;;;;10103523;28;20045;-76
2024/02/24 03:09:55;;;;;;;6.75;4.28;;;;;;;;;;10097507;28;20076;-77
2024/02/24 03:14:49;;;;;;;41.20;28.17;;;;;;;;;;10094848;28;20522;-77
2024/02/24 03:19:44;;;;;;;15.02;11.07;;;;;;;;;;10103916;28;20045;-77
2024/02/24 03:25:01;;;;;;;9.07;6.68;;;;;;;;;;10102455;28;20484;-77
2024/02/24 03:29:55;;;;;;;12.85;8.35;;;;;;;;;;10103010;28;20114;-77
2024/02/24 03:34:50;;;;;;;12.70;8.00;;;;;;;;;;10104412;28;20053;-77
2024/02/24 03:39:44;;;;;;;14.13;9.45;;;;;;;;;;10101910;28;20088;-78
2024/02/24 03:44:38;;;;;;;12.77;7.85;;;;;;;;;;10098516;28;20139;-77
2024/02/24 03:49:32;;;;;;;14.43;8.93;;;;;;;;;;10102935;28;20425;-77
2024/02/24 03:54:27;;;;;;;15.27;9.63;;;;;;;;;;10102523;28;20045;-77
2024/02/24 03:59:21;;;;;;;14.88;8.13;;;;;;;;;;10102280;28;20130;-77
2024/02/24 04:04:15;;;;;;;11.30;9.15;;;;;;;;;;10102478;28;20463;-79
2024/02/24 04:09:10;;;;;;;14.18;9.55;;;;;;;;;;10092927;28;20051;-78
2024/02/24 04:14:04;;;;;;;9.27;7.05;;;;;;;;;;10102120;28;20114;-76
2024/02/24 04:18:58;;;;;;;14.18;8.90;;;;;;;;;;10101787;28;20041;-76
2024/02/24 04:23:52;;;;;;;11.40;8.77;;;;;;;;;;10102264;28;20072;-78
2024/02/24 04:28:47;;;;;;;7.10;5.47;;;;;;;;;;10104022;28;20560;-78
2024/02/24 04:33:40;;;;;;;17.77;11.48;;;;;;;;;;10108928;28;20569;-77
2024/02/24 04:38:35;;;;;;;27.38;21.65;;;;;;;;;;10108755;28;20045;-77
2024/02/24 04:43:29;;;;;;;34.65;20.17;;;;;;;;;;10108518;28;20107;-77
2024/02/24 04:48:27;;;;;;;9.60;6.78;;;;;;;;;;10108697;28;20095;-77
2024/02/24 04:53:21;;;;;;;8.70;4.85;;;;;;;;;;10109909;28;20045;-76
2024/02/24 04:58:15;;;;;;;10.65;6.07;;;;;;;;;;10107403;28;21519;-78
2024/02/24 05:03:08;;;;;;;7.10;5.25;;;;;;;;;;10104486;28;20068;-76
2024/02/24 05:08:04;;;;;;;8.27;6.05;;;;;;;;;;10108027;28;20049;-77
2024/02/24 05:12:58;;;;;;;14.57;10.55;;;;;;;;;;10106617;28;20102;-76
2024/02/24 05:17:57;;;;;;;20.23;13.82;;;;;;;;;;10107440;28;20059;-76
2024/02/24 05:22:51;;;;;;;24.27;14.52;;;;;;;;;;10109029;28;20116;-77
2024/02/24 05:27:46;;;;;;;13.18;8.63;;;;;;;;;;10108156;28;20040;-76
2024/02/24 05:32:40;;;;;;;14.15;8.43;;;;;;;;;;10105385;28;20053;-76
2024/02/24 05:37:42;;;;;;;24.48;14.60;;;;;;;;;;10107694;28;20099;-76
2024/02/24 05:42:36;;;;;;;95.13;66.15;;;;;;;;;;10105035;28;20398;-76
2024/02/24 05:47:30;;;;;;;45.88;35.85;;;;;;;;;;10106500;28;20052;-76
2024/02/24 05:52:25;;;;;;;48.38;43.10;;;;;;;;;;10104788;28;20041;-77
2024/02/24 05:57:19;;;;;;;42.35;32.20;;;;;;;;;;10106827;28;20137;-77
2024/02/24 06:02:13;;;;;;;42.63;29.05;;;;;;;;;;10105127;28;20053;-79
2024/02/24 06:07:07;;;;;;;80.63;56.92;;;;;;;;;;10105642;28;20041;-77
2024/02/24 06:12:01;;;;;;;17.60;10.60;;;;;;;;;;10105255;28;20553;-77
2024/02/24 06:16:56;;;;;;;15.60;9.55;;;;;;;;;;10105174;28;20178;-77
2024/02/24 06:21:50;;;;;;;12.10;9.57;;;;;;;;;;10104649;28;20083;-77
2024/02/24 06:26:44;;;;;;;17.83;9.52;;;;;;;;;;10104715;28;20123;-77
2024/02/24 06:31:38;;;;;;;18.48;14.57;;;;;;;;;;10103279;28;20106;-77
2024/02/24 06:36:32;;;;;;;16.20;10.20;;;;;;;;;;10105878;28;20049;-77
2024/02/24 06:41:27;;;;;;;23.58;16.30;;;;;;;;;;10104140;28;20504;-77
2024/02/24 06:46:22;;;;;;;22.42;15.65;;;;;;;;;;10104159;28;20459;-77
2024/02/24 06:51:15;;;;;;;13.30;8.82;;;;;;;;;;10103766;28;20048;-77
2024/02/24 06:56:09;;;;;;;41.08;27.40;;;;;;;;;;10104500;28;20478;-76
2024/02/24 07:01:04;;;;;;;33.83;24.42;;;;;;;;;;10103999;28;20056;-78
2024/02/24 07:06:01;;;;;;;39.42;24.55;;;;;;;;;;10104362;28;20053;-79
2024/02/24 07:10:55;;;;;;;36.88;25.45;;;;;;;;;;10097097;28;20049;-77
2024/02/24 07:15:50;;;;;;;45.22;36.45;;;;;;;;;;10111232;28;20109;-78
2024/02/24 07:20:47;;;;;;;31.50;24.85;;;;;;;;;;10102394;28;20049;-78
2024/02/24 07:25:41;;;;;;;36.65;27.05;;;;;;;;;;10086750;28;20049;-78
2024/02/24 07:30:35;;;;;;;29.25;23.17;;;;;;;;;;10083162;28;20048;-78
2024/02/24 07:35:30;;;;;;;10.52;9.43;;;;;;;;;;10082408;28;20128;-79
2024/02/24 07:40:23;;;;;;;12.48;6.60;;;;;;;;;;10086488;28;20052;-78
2024/02/24 07:45:19;;;;;;;26.63;19.15;;;;;;;;;;10088056;28;20052;-78
2024/02/24 07:50:14;;;;;;;9.90;5.78;;;;;;;;;;10086470;28;20063;-79
2024/02/24 07:55:09;;;;;;;5.65;4.57;;;;;;;;;;10105284;28;20092;-78
2024/02/24 08:00:05;;;;;;;12.95;9.52;;;;;;;;;;10104979;28;20489;-80
2024/02/24 08:04:59;;;;;;;18.00;10.73;;;;;;;;;;10110616;28;20061;-78
2024/02/24 08:09:53;;;;;;;21.98;15.40;;;;;;;;;;10101689;28;20417;-77
2024/02/24 08:14:48;;;;;;;15.43;8.13;;;;;;;;;;10087314;28;20049;-78
2024/02/24 08:19:42;;;;;;;12.50;6.70;;;;;;;;;;10103127;28;20057;-78
2024/02/24 08:24:36;;;;;;;15.60;11.02;;;;;;;;;;10099278;28;20044;-74
2024/02/24 08:29:31;;;;;;;12.65;9.35;;;;;;;;;;10107515;28;20056;-74
2024/02/24 08:34:24;;;;;;;14.10;7.43;;;;;;;;;;10097284;28;20045;-76
2024/02/24 08:39:19;;;;;;;15.13;5.75;;;;;;;;;;10097537;28;20053;-79
2024/02/24 08:44:13;;;;;;;8.95;5.43;;;;;;;;;;10095585;28;20570;-78
2024/02/24 08:49:07;;;;;;;10.65;5.50;;;;;;;;;;10104640;28;20130;-78
2024/02/24 08:54:01;;;;;;;5.63;3.50;;;;;;;;;;10101780;28;20053;-78
2024/02/24 08:58:56;;;;;;;9.98;3.92;;;;;;;;;;10086588;28;20080;-77
2024/02/24 09:03:50;;;;;;;7.32;2.65;;;;;;;;;;10102128;28;20059;-77
2024/02/24 09:08:45;;;;;;;4.03;2.78;;;;;;;;;;10099222;28;20453;-79
2024/02/24 09:13:41;;;;;;;6.38;2.58;;;;;;;;;;10109494;28;20110;-77
2024/02/24 09:18:37;;;;;;;7.57;3.28;;;;;;;;;;10103180;28;20045;-78
2024/02/24 09:23:31;;;;;;;3.42;2.55;;;;;;;;;;10104694;28;20049;-77
2024/02/24 09:28:26;;;;;;;5.05;2.75;;;;;;;;;;10099558;28;20409;-78
2024/02/24 09:33:21;;;;;;;8.07;2.17;;;;;;;;;;10103218;28;20123;-78
2024/02/24 09:38:15;;;;;;;6.18;1.70;;;;;;;;;;10098415;28;20052;-79
2024/02/24 09:43:09;;;;;;;2.15;1.83;;;;;;;;;;10103651;28;20065;-79
2024/02/24 09:48:05;;;;;;;4.03;1.55;;;;;;;;;;10082318;28;20777;-78
2024/02/24 09:52:59;;;;;;;3.42;1.73;;;;;;;;;;10086751;28;20580;-78
2024/02/24 09:57:57;;;;;;;5.40;1.48;;;;;;;;;;10107708;28;20057;-80
2024/02/24 10:02:50;;;;;;;1.98;1.50;;;;;;;;;;10105373;28;20056;-79
2024/02/24 10:07:48;;;;;;;2.85;1.30;;;;;;;;;;10102571;28;20053;-77
2024/02/24 10:13:02;;;;;;;1.70;1.55;;;;;;;;;;10092851;28;21355;-78
2024/02/24 10:17:58;;;;;;;2.17;1.35;;;;;;;;;;10103662;28;20044;-79
2024/02/24 10:22:52;;;;;;;3.42;1.70;;;;;;;;;;10076751;28;20555;-77
2024/02/24 10:27:46;;;;;;;8.02;1.70;;;;;;;;;;10076823;28;20860;-78
2024/02/24 10:32:42;;;;;;;4.45;1.40;;;;;;;;;;10094522;28;20060;-78
2024/02/24 10:37:36;;;;;;;6.32;1.35;;;;;;;;;;10092815;28;20040;-78
2024/02/24 10:42:50;;;;;;;3.03;1.30;;;;;;;;;;10102619;28;20088;-77
2024/02/24 10:47:44;;;;;;;4.80;1.58;;;;;;;;;;10083610;28;20076;-77
2024/02/24 10:52:41;;;;;;;6.70;1.80;;;;;;;;;;10101008;28;20056;-76
2024/02/24 10:57:37;;;;;;;13.77;10.60;;;;;;;;;;10102372;28;20080;-77
2024/02/24 11:02:31;;;;;;;14.85;11.63;;;;;;;;;;10101251;28;20045;-77
2024/02/24 11:07:24;;;;;;;19.48;14.15;;;;;;;;;;10099263;28;20045;-77
2024/02/24 11:12:21;;;;;;;18.30;11.10;;;;;;;;;;10086264;28;20047;-76
2024/02/24 11:17:55;;;;;;;19.10;13.82;;;;;;;;;;10099242;28;20043;-76
2024/02/24 11:22:50;;;;;;;13.70;11.48;;;;;;;;;;10104951;28;20114;-77
2024/02/24 11:27:56;;;;;;;15.50;13.40;;;;;;;;;;10098418;28;20045;-76
2024/02/24 11:32:51;;;;;;;13.23;10.63;;;;;;;;;;10105591;28;20034;-77
2024/02/24 11:37:47;;;;;;;10.63;9.30;;;;;;;;;;10101410;28;20053;-75
2024/02/24 11:42:41;;;;;;;19.67;13.73;;;;;;;;;;10099267;28;20107;-75
2024/02/24 11:47:38;;;;;;;9.63;7.18;;;;;;;;;;10112365;28;20053;-76
2024/02/24 11:52:32;;;;;;;4.13;1.88;;;;;;;;;;10099368;28;20132;-77
2024/02/24 11:57:25;;;;;;;3.60;1.95;;;;;;;;;;10111756;28;20463;-77
2024/02/24 12:02:20;;;;;;;1.30;0.93;;;;;;;;;;10098287;28;20048;-75
2024/02/24 12:07:15;;;;;;;1.98;1.30;;;;;;;;;;10110010;28;20045;-77
2024/02/24 12:12:10;;;;;;;1.67;1.40;;;;;;;;;;10105124;28;20456;-78
2024/02/24 12:17:04;;;;;;;2.28;0.85;;;;;;;;;;10108296;28;20057;-77
2024/02/24 12:21:58;;;;;;;1.23;0.73;;;;;;;;;;10106868;28;20041;-77
2024/02/24 12:26:53;;;;;;;1.00;0.80;;;;;;;;;;10104176;28;20052;-80
2024/02/24 12:31:47;;;;;;;1.52;1.10;;;;;;;;;;10108121;28;20094;-77
2024/02/24 12:36:41;;;;;;;1.67;0.85;;;;;;;;;;10107166;28;20049;-77
2024/02/24 12:41:35;;;;;;;0.85;0.77;;;;;;;;;;10101465;28;20512;-77
2024/02/24 12:46:30;;;;;;;2.58;1.75;;;;;;;;;;10084605;28;20096;-77
2024/02/24 12:51:24;;;;;;;1.60;1.00;;;;;;;;;;10095269;28;20124;-78
2024/02/24 12:56:19;;;;;;;1.45;1.00;;;;;;;;;;10108096;28;20057;-79
2024/02/24 13:01:16;;;;;;;2.92;1.30;;;;;;;;;;10102905;28;20057;-78
2024/02/24 13:06:11;;;;;;;2.60;1.10;;;;;;;;;;10096560;28;20053;-75
2024/02/24 13:11:05;;;;;;;5.18;1.67;;;;;;;;;;10101770;28;20088;-77
2024/02/24 13:16:00;;;;;;;4.13;2.10;;;;;;;;;;10106527;28;20505;-78
2024/02/24 13:20:53;;;;;;;2.50;1.42;;;;;;;;;;10104457;28;20057;-78
2024/02/24 13:25:47;;;;;;;1.63;0.90;;;;;;;;;;10106554;28;20443;-77
2024/02/24 13:30:41;;;;;;;1.48;0.63;;;;;;;;;;10108686;28;20055;-78
2024/02/24 13:35:36;;;;;;;2.58;0.90;;;;;;;;;;10107765;28;20061;-78
2024/02/24 13:40:31;;;;;;;2.95;0.90;;;;;;;;;;10096092;28;20110;-78
2024/02/24 13:45:25;;;;;;;4.68;1.48;;;;;;;;;;10086936;28;20460;-78
2024/02/24 13:50:22;;;;;;;1.02;0.77;;;;;;;;;;10091869;28;20085;-76
2024/02/24 13:55:16;;;;;;;2.00;0.95;;;;;;;;;;10104695;28;20139;-77
2024/02/24 14:00:11;;;;;;;4.78;2.28;;;;;;;;;;10106830;28;20144;-77
2024/02/24 14:05:06;;;;;;;1.13;0.88;;;;;;;;;;10107871;28;20083;-78
2024/02/24 14:10:01;;;;;;;1.48;0.93;;;;;;;;;;10105984;28;20056;-78
2024/02/24 14:14:55;;;;;;;4.70;1.30;;;;;;;;;;10103388;28;20049;-76
2024/02/24 14:19:49;;;;;;;3.75;1.40;;;;;;;;;;10105770;28;20041;-79
2024/02/24 14:24:43;;;;;;;3.03;1.45;;;;;;;;;;10106280;28;20414;-77
2024/02/24 14:29:37;;;;;;;2.80;1.27;;;;;;;;;;10103423;28;20080;-78
2024/02/24 14:34:32;;;;;;;2.35;1.33;;;;;;;;;;10106432;28;20048;-77
2024/02/24 14:39:27;;;;;;;1.48;1.27;;;;;;;;;;10106275;28;20076;-79
2024/02/24 14:44:21;;;;;;;1.98;1.35;;;;;;;;;;10104096;28;20065;-77
2024/02/24 14:49:15;;;;;;;3.38;1.27;;;;;;;;;;10102535;28;20569;-78
2024/02/24 14:54:09;;;;;;;3.47;2.20;;;;;;;;;;10102218;28;20406;-80
2024/02/24 14:59:05;;;;;;;1.73;1.50;;;;;;;;;;10101079;28;20132;-77
2024/02/24 15:03:58;;;;;;;1.55;1.38;;;;;;;;;;10103743;28;20041;-78
2024/02/24 15:08:53;;;;;;;3.30;1.58;;;;;;;;;;10103164;28;20056;-78
2024/02/24 15:13:47;;;;;;;2.33;1.35;;;;;;;;;;10103114;28;20500;-78
2024/02/24 15:18:41;;;;;;;1.17;1.08;;;;;;;;;;10103054;28;20087;-78
2024/02/24 15:23:36;;;;;;;6.70;2.47;;;;;;;;;;10102926;28;20055;-77
2024/02/24 15:28:30;;;;;;;8.32;2.00;;;;;;;;;;10102455;28;20128;-78
2024/02/24 15:33:24;;;;;;;4.90;2.17;;;;;;;;;;10103050;28;20512;-79
2024/02/24 15:38:18;;;;;;;3.25;1.52;;;;;;;;;;10101473;28;20052;-77
2024/02/24 15:43:12;;;;;;;2.65;2.00;;;;;;;;;;10101899;28;20243;-78
2024/02/24 15:48:07;;;;;;;2.92;1.90;;;;;;;;;;10102506;28;20095;-78
2024/02/24 15:53:02;;;;;;;3.17;1.55;;;;;;;;;;10102575;28;20106;-77
2024/02/24 15:57:56;;;;;;;5.50;2.67;;;;;;;;;;10102648;28;20051;-78
2024/02/24 16:02:50;;;;;;;4.32;2.10;;;;;;;;;;10102638;28;20493;-78
2024/02/24 16:07:45;;;;;;;6.25;3.00;;;;;;;;;;10102650;28;20076;-78
2024/02/24 16:12:38;;;;;;;4.05;2.58;;;;;;;;;;10102008;28;20040;-79
2024/02/24 16:17:33;;;;;;;3.83;2.72;;;;;;;;;;10102247;28;20060;-78
2024/02/24 16:22:28;;;;;;;6.78;2.78;;;;;;;;;;10102129;28;20048;-78
2024/02/24 16:27:21;;;;;;;6.32;3.30;;;;;;;;;;10109646;28;20569;-78
2024/02/24 16:32:17;;;;;;;11.48;5.72;;;;;;;;;;10109807;28;20127;-77
2024/02/24 16:37:10;;;;;;;13.98;8.13;;;;;;;;;;10108121;28;20049;-78
2024/02/24 16:42:06;;;;;;;7.82;4.22;;;;;;;;;;10105205;28;20049;-78
2024/02/24 16:47:00;;;;;;;3.97;2.85;;;;;;;;;;10095556;28;20103;-79
2024/02/24 16:51:54;;;;;;;14.65;9.60;;;;;;;;;;10106346;28;20479;-79
2024/02/24 16:56:47;;;;;;;10.60;6.22;;;;;;;;;;10110052;28;20049;-78
2024/02/24 17:01:41;;;;;;;9.45;6.72;;;;;;;;;;10109797;28;20045;-77
2024/02/24 17:06:38;;;;;;;4.28;2.45;;;;;;;;;;10103812;28;20061;-78
2024/02/24 17:11:32;;;;;;;6.93;3.65;;;;;;;;;;10101261;28;20389;-78
2024/02/24 17:16:26;;;;;;;5.72;2.63;;;;;;;;;;10104264;28;20497;-78
2024/02/24 17:21:20;;;;;;;5.60;3.40;;;;;;;;;;10101996;28;20054;-77
2024/02/24 17:26:16;;;;;;;4.10;2.67;;;;;;;;;;10103715;28;20040;-77
2024/02/24 17:31:14;;;;;;;7.30;3.50;;;;;;;;;;10107739;28;20080;-78
2024/02/24 17:36:11;;;;;;;4.57;3.28;;;;;;;;;;10106645;28;20064;-78
2024/02/24 17:41:05;;;;;;;2.45;2.25;;;;;;;;;;10105238;28;20055;-77
2024/02/24 17:45:59;;;;;;;2.97;2.30;;;;;;;;;;10107980;28;20156;-76
2024/02/24 17:50:52;;;;;;;11.13;7.63;;;;;;;;;;10107883;28;20056;-79
2024/02/24 17:55:46;;;;;;;9.77;5.68;;;;;;;;;;10105199;28;20107;-76
2024/02/24 18:00:40;;;;;;;3.08;1.42;;;;;;;;;;10107587;28;20077;-76
2024/02/24 18:05:35;;;;;;;6.32;5.75;;;;;;;;;;10094418;28;20045;-77
2024/02/24 18:10:29;;;;;;;3.88;3.47;;;;;;;;;;10107205;28;20084;-77
2024/02/24 18:15:23;;;;;;;7.03;6.32;;;;;;;;;;10107019;28;20111;-77
2024/02/24 18:20:17;;;;;;;3.38;2.90;;;;;;;;;;10094994;28;20052;-77
2024/02/24 18:25:11;;;;;;;5.53;4.38;;;;;;;;;;10107128;28;20136;-77
2024/02/24 18:30:07;;;;;;;10.95;8.65;;;;;;;;;;10106229;28;20130;-78
2024/02/24 18:35:02;;;;;;;5.22;3.47;;;;;;;;;;10106281;28;20112;-76
2024/02/24 18:39:56;;;;;;;8.00;4.95;;;;;;;;;;10105657;28;20049;-77
2024/02/24 18:44:50;;;;;;;3.40;3.10;;;;;;;;;;10098081;28;20072;-76
2024/02/24 18:49:46;;;;;;;6.85;2.60;;;;;;;;;;10104297;28;20056;-77
2024/02/24 18:54:45;;;;;;;4.30;3.15;;;;;;;;;;10096376;28;20053;-76
2024/02/24 18:59:40;;;;;;;6.93;5.22;;;;;;;;;;10094639;28;20046;-77
2024/02/24 19:04:35;;;;;;;5.10;3.20;;;;;;;;;;10100872;28;20045;-77
2024/02/24 19:09:29;;;;;;;3.67;2.60;;;;;;;;;;10088749;28;20092;-78
2024/02/24 19:14:24;;;;;;;7.32;5.97;;;;;;;;;;10091022;28;20057;-77
2024/02/24 19:19:19;;;;;;;3.83;3.42;;;;;;;;;;10081350;28;20053;-77
2024/02/24 19:24:13;;;;;;;2.83;2.53;;;;;;;;;;10091329;28;20412;-76
2024/02/24 19:29:10;;;;;;;4.95;4.05;;;;;;;;;;10103220;28;20150;-76
2024/02/24 19:34:06;;;;;;;4.82;3.72;;;;;;;;;;10103344;28;20056;-75
2024/02/24 19:39:00;;;;;;;5.38;4.07;;;;;;;;;;10104148;28;20059;-76
2024/02/24 19:44:08;;;;;;;7.82;4.20;;;;;;;;;;10093431;28;20119;-78
2024/02/24 19:49:04;;;;;;;4.55;3.70;;;;;;;;;;10103114;28;20056;-76
2024/02/24 19:54:02;;;;;;;6.78;5.70;;;;;;;;;;10101228;28;20456;-74
2024/02/24 19:58:57;;;;;;;5.25;3.13;;;;;;;;;;10105300;28;20466;-75
2024/02/24 20:03:51;;;;;;;7.03;2.95;;;;;;;;;;10111512;28;20049;-77
2024/02/24 20:08:45;;;;;;;4.63;3.70;;;;;;;;;;10111930;28;20088;-76
2024/02/24 20:13:37;;;;;;;2.15;1.95;;;;;;;;;;10090251;28;20088;-76
2024/02/24 20:18:31;;;;;;;3.22;2.92;;;;;;;;;;10111027;28;20103;-77
2024/02/24 20:23:24;;;;;;;3.55;3.22;;;;;;;;;;10096093;28;20059;-76
2024/02/24 20:28:19;;;;;;;4.45;3.13;;;;;;;;;;10107853;28;20053;-77
2024/02/24 20:33:12;;;;;;;2.30;2.10;;;;;;;;;;10106048;28;20049;-78
2024/02/24 20:38:06;;;;;;;2.72;2.30;;;;;;;;;;10109739;28;20464;-76
2024/02/24 20:43:00;;;;;;;1.92;1.83;;;;;;;;;;10100859;28;20053;-76
2024/02/24 20:47:54;;;;;;;4.13;2.95;;;;;;;;;;10102703;28;20052;-76
2024/02/24 20:52:48;;;;;;;4.15;3.25;;;;;;;;;;10107159;28;20429;-76
2024/02/24 20:57:41;;;;;;;5.15;2.78;;;;;;;;;;10109823;28;20045;-76
2024/02/24 21:02:38;;;;;;;2.33;2.13;;;;;;;;;;10100492;28;20048;-76
2024/02/24 21:07:32;;;;;;;3.25;2.25;;;;;;;;;;10099315;28;20057;-76
2024/02/24 21:12:25;;;;;;;1.90;1.80;;;;;;;;;;10104591;28;20052;-77
2024/02/24 21:17:18;;;;;;;2.22;2.13;;;;;;;;;;10109442;28;20055;-78
2024/02/24 21:22:12;;;;;;;4.15;2.38;;;;;;;;;;10104103;28;20045;-79
2024/02/24 21:27:06;;;;;;;3.20;2.00;;;;;;;;;;10108342;28;20057;-76
2024/02/24 21:32:00;;;;;;;9.23;2.78;;;;;;;;;;10108987;28;20049;-76
2024/02/24 21:36:53;;;;;;;7.40;4.25;;;;;;;;;;10101359;28;20520;-75
2024/02/24 21:41:46;;;;;;;9.02;6.32;;;;;;;;;;10100649;28;20131;-77
2024/02/24 21:46:40;;;;;;;9.75;6.18;;;;;;;;;;10090821;28;20049;-77
2024/02/24 21:51:35;;;;;;;5.60;3.15;;;;;;;;;;10103238;28;20614;-76
2024/02/24 21:56:28;;;;;;;10.98;5.85;;;;;;;;;;10101194;28;20480;-77
2024/02/24 22:01:24;;;;;;;10.70;7.70;;;;;;;;;;10100820;28;20072;-77
2024/02/24 22:06:19;;;;;;;15.13;8.40;;;;;;;;;;10100056;28;20052;-74
2024/02/24 22:11:13;;;;;;;8.65;5.43;;;;;;;;;;10100021;28;20064;-78
2024/02/24 22:16:11;;;;;;;5.25;3.33;;;;;;;;;;10100789;28;20076;-76
2024/02/24 22:21:05;;;;;;;4.65;3.22;;;;;;;;;;10097704;28;20516;-76
2024/02/24 22:25:59;;;;;;;3.47;3.17;;;;;;;;;;10099140;28;20067;-75
2024/02/24 22:30:54;;;;;;;3.85;3.17;;;;;;;;;;10099421;28;20114;-76
2024/02/24 22:35:52;;;;;;;2.65;2.03;;;;;;;;;;10086470;28;20057;-77
2024/02/24 22:40:46;;;;;;;3.67;2.50;;;;;;;;;;10088115;28;20103;-76
2024/02/24 22:45:41;;;;;;;5.03;2.55;;;;;;;;;;10099037;28;20110;-77
2024/02/24 22:50:36;;;;;;;3.47;2.80;;;;;;;;;;10099586;28;20063;-75
2024/02/24 22:55:34;;;;;;;3.97;3.20;;;;;;;;;;10085758;28;20085;-77
2024/02/24 23:00:28;;;;;;;6.80;3.22;;;;;;;;;;10098525;28;20131;-76
2024/02/24 23:05:22;;;;;;;4.80;3.10;;;;;;;;;;10098280;28;20077;-76
2024/02/24 23:10:17;;;;;;;2.25;2.08;;;;;;;;;;10098279;28;20045;-76
2024/02/24 23:15:10;;;;;;;2.00;1.88;;;;;;;;;;10098253;28;20051;-75
2024/02/24 23:20:08;;;;;;;2.92;2.33;;;;;;;;;;10098281;28;20148;-76
2024/02/24 23:25:02;;;;;;;3.42;2.50;;;;;;;;;;10097429;28;20072;-76
2024/02/24 23:29:56;;;;;;;13.27;11.20;;;;;;;;;;10087779;28;20057;-75
2024/02/24 23:34:53;;;;;;;3.28;2.85;;;;;;;;;;10075203;28;20072;-75
2024/02/24 23:39:48;;;;;;;6.60;4.63;;;;;;;;;;10097513;28;20037;-77
2024/02/24 23:44:42;;;;;;;6.28;4.03;;;;;;;;;;10096923;28;20064;-74
2024/02/24 23:49:36;;;;;;;6.65;4.90;;;;;;;;;;10094030;28;20103;-76
2024/02/24 23:54:32;;;;;;;6.28;4.32;;;;;;;;;;10085223;28;20065;-74
2024/02/24 23:59:26;;;;;;;7.15;5.18;;;;;;;;;;10091141;28;20052;-75
